createdAt,value
2018-04-18T00:00:25.075Z,15.73
2018-04-18T00:02:57.595Z,12.00
2018-04-18T00:05:30.907Z,14.60
2018-04-18T00:08:03.523Z,12.23
2018-04-18T00:10:35.915Z,12.10
2018-04-18T00:13:08.559Z,14.07
2018-04-18T00:15:41.019Z,7.60
2018-04-18T00:18:14.358Z,10.23
2018-04-18T00:20:46.706Z,8.40
2018-04-18T00:23:19.181Z,9.43
2018-04-18T00:25:51.648Z,7.83
2018-04-18T00:28:25.155Z,11.07
2018-04-18T00:30:57.766Z,7.93
2018-04-18T00:33:30.888Z,10.30
2018-04-18T00:36:03.198Z,11.30
2018-04-18T00:38:35.562Z,10.90
2018-04-18T00:41:07.890Z,10.17
2018-04-18T00:43:40.445Z,12.53
2018-04-18T00:46:13.011Z,10.20
2018-04-18T00:48:45.659Z,8.47
2018-04-18T00:51:17.937Z,10.20
2018-04-18T00:53:50.405Z,7.93
2018-04-18T00:56:23.607Z,13.43
2018-04-18T00:58:56.164Z,11.70
2018-04-18T01:01:28.706Z,10.97
2018-04-18T01:04:01.347Z,10.90
2018-04-18T01:06:33.759Z,10.57
2018-04-18T01:09:06.339Z,8.73
2018-04-18T01:11:38.715Z,10.20
2018-04-18T01:14:11.164Z,7.83
2018-04-18T01:16:43.646Z,11.73
2018-04-18T01:19:16.066Z,8.40
2018-04-18T01:21:48.466Z,10.90
2018-04-18T01:24:21.008Z,11.63
2018-04-18T01:26:53.459Z,10.43
2018-04-18T01:29:25.794Z,9.50
2018-04-18T01:31:58.142Z,10.20
2018-04-18T01:34:31.479Z,10.90
2018-04-18T01:37:03.882Z,10.93
2018-04-18T01:39:38.269Z,11.30
2018-04-18T01:42:11.606Z,13.90
2018-04-18T01:44:44.027Z,8.70
2018-04-18T01:47:19.411Z,8.10
2018-04-18T01:49:52.190Z,8.37
2018-04-18T01:52:24.723Z,10.30
2018-04-18T01:54:57.154Z,9.23
2018-04-18T01:57:29.794Z,12.87
2018-04-18T02:00:02.294Z,11.07
2018-04-18T02:02:35.570Z,10.60
2018-04-18T02:05:08.136Z,10.80
2018-04-18T02:07:40.522Z,11.57
2018-04-18T02:10:12.958Z,12.13
2018-04-18T02:12:46.222Z,11.03
2018-04-18T02:15:19.731Z,9.10
2018-04-18T02:17:52.059Z,11.20
2018-04-18T02:20:24.507Z,9.90
2018-04-18T02:22:56.941Z,8.27
2018-04-18T02:25:29.459Z,9.73
2018-04-18T02:28:01.866Z,8.27
2018-04-18T02:30:34.701Z,9.73
2018-04-18T02:33:07.318Z,14.30
2018-04-18T02:35:40.292Z,12.03
2018-04-18T02:38:12.694Z,8.47
2018-04-18T02:40:45.020Z,13.03
2018-04-18T02:43:17.415Z,11.57
2018-04-18T02:45:49.999Z,8.90
2018-04-18T02:48:22.494Z,11.70
2018-04-18T02:50:55.647Z,11.73
2018-04-18T02:53:28.063Z,11.73
2018-04-18T02:56:00.571Z,11.30
2018-04-18T02:58:33.659Z,8.40
2018-04-18T03:01:06.235Z,14.67
2018-04-18T03:03:38.645Z,10.17
2018-04-18T03:06:11.466Z,10.73
2018-04-18T03:08:44.654Z,10.87
2018-04-18T03:11:17.876Z,9.33
2018-04-18T03:13:51.234Z,12.93
2018-04-18T03:16:23.984Z,11.40
2018-04-18T03:18:56.270Z,16.37
2018-04-18T03:21:29.374Z,8.63
2018-04-18T03:24:01.714Z,13.80
2018-04-18T03:26:34.779Z,17.33
2018-04-18T03:29:07.382Z,7.97
2018-04-18T03:31:39.895Z,10.20
2018-04-18T03:34:12.649Z,9.07
2018-04-18T03:36:45.277Z,9.10
2018-04-18T03:39:17.867Z,9.40
2018-04-18T03:41:50.447Z,9.63
2018-04-18T03:44:22.906Z,10.70
2018-04-18T03:46:55.559Z,8.27
2018-04-18T03:49:27.914Z,9.43
2018-04-18T03:52:00.362Z,10.33
2018-04-18T03:54:33.897Z,10.33
2018-04-18T03:57:06.309Z,8.80
2018-04-18T03:59:39.737Z,9.50
2018-04-18T04:02:12.410Z,9.43
2018-04-18T04:04:44.974Z,8.10
2018-04-18T04:07:18.269Z,8.07
2018-04-18T04:09:50.647Z,9.17
2018-04-18T04:12:23.331Z,18.27
2018-04-18T04:14:55.671Z,11.93
2018-04-18T04:17:40.513Z,8.80
2018-04-18T04:20:25.295Z,10.10
2018-04-18T04:23:10.312Z,9.67
2018-04-18T04:25:51.065Z,11.03
2018-04-18T04:28:23.453Z,12.63
2018-04-18T04:30:56.669Z,12.27
2018-04-18T04:33:29.162Z,9.27
2018-04-18T04:36:01.776Z,9.37
2018-04-18T04:38:34.114Z,12.13
2018-04-18T04:41:06.703Z,11.17
2018-04-18T04:43:39.231Z,12.87
2018-04-18T04:46:12.382Z,10.27
2018-04-18T04:48:45.908Z,9.30
2018-04-18T04:51:21.716Z,10.10
2018-04-18T04:53:56.178Z,11.87
2018-04-18T04:56:29.270Z,10.90
2018-04-18T04:59:06.204Z,11.33
2018-04-18T05:01:39.311Z,8.57
2018-04-18T05:04:11.870Z,8.57
2018-04-18T05:06:48.128Z,14.90
2018-04-18T05:09:20.653Z,11.93
2018-04-18T05:11:53.138Z,11.30
2018-04-18T05:14:25.494Z,8.67
2018-04-18T05:16:57.903Z,11.30
2018-04-18T05:19:31.021Z,13.63
2018-04-18T05:22:03.423Z,15.63
2018-04-18T05:24:35.954Z,24.00
2018-04-18T05:27:08.253Z,11.70
2018-04-18T05:29:40.833Z,9.00
2018-04-18T05:32:13.991Z,10.77
2018-04-18T05:34:47.135Z,19.13
2018-04-18T05:37:19.918Z,12.53
2018-04-18T05:39:52.506Z,9.93
2018-04-18T05:42:25.038Z,11.67
2018-04-18T05:44:57.446Z,11.83
2018-04-18T05:47:29.812Z,13.90
2018-04-18T05:50:02.259Z,14.37
2018-04-18T05:52:34.741Z,15.67
2018-04-18T05:55:07.889Z,16.63
2018-04-18T05:57:40.275Z,17.87
2018-04-18T06:00:13.428Z,17.80
2018-04-18T06:02:45.951Z,21.90
2018-04-18T06:05:18.490Z,16.27
2018-04-18T06:07:50.919Z,25.67
2018-04-18T06:10:23.282Z,20.60
2018-04-18T06:12:55.747Z,20.27
2018-04-18T06:15:31.986Z,20.90
2018-04-18T06:18:05.072Z,19.97
2018-04-18T06:20:38.226Z,22.97
2018-04-18T06:23:10.762Z,19.43
2018-04-18T06:25:44.378Z,20.90
2018-04-18T06:28:16.859Z,22.53
2018-04-18T06:30:49.378Z,24.70
2018-04-18T06:33:21.860Z,26.07
2018-04-18T06:35:54.515Z,22.17
2018-04-18T06:38:26.863Z,20.47
2018-04-18T06:41:00.303Z,28.13
2018-04-18T06:43:32.826Z,22.73
2018-04-18T06:46:05.355Z,20.63
2018-04-18T06:48:37.678Z,26.67
2018-04-18T06:51:11.365Z,23.77
2018-04-18T06:53:44.729Z,22.37
2018-04-18T06:56:17.105Z,20.23
2018-04-18T06:58:49.534Z,20.03
2018-04-18T07:01:22.067Z,29.03
2018-04-18T07:03:55.086Z,20.60
2018-04-18T07:06:27.738Z,20.80
2018-04-18T07:09:00.205Z,20.00
2018-04-18T07:11:32.850Z,20.60
2018-04-18T07:14:05.343Z,22.70
2018-04-18T07:16:37.669Z,21.20
2018-04-18T07:19:11.112Z,22.20
2018-04-18T07:21:43.567Z,24.23
2018-04-18T07:24:15.852Z,25.40
2018-04-18T07:26:49.051Z,19.53
2018-04-18T07:29:21.556Z,23.03
2018-04-18T07:31:54.559Z,19.63
2018-04-18T07:34:27.178Z,19.50
2018-04-18T07:36:59.750Z,21.03
2018-04-18T07:39:32.107Z,20.37
2018-04-18T07:42:04.876Z,18.27
2018-04-18T07:44:37.274Z,16.50
2018-04-18T07:47:09.877Z,15.20
2018-04-18T07:49:43.419Z,17.90
2018-04-18T07:52:15.771Z,16.93
2018-04-18T07:54:48.218Z,16.87
2018-04-18T07:57:21.005Z,20.90
2018-04-18T07:59:54.142Z,20.13
2018-04-18T08:02:26.534Z,18.47
2018-04-18T08:04:59.027Z,15.00
2018-04-18T08:07:33.468Z,15.13
2018-04-18T08:10:05.771Z,14.07
2018-04-18T08:12:38.515Z,13.40
2018-04-18T08:15:10.931Z,17.43
2018-04-18T08:17:44.452Z,15.43
2018-04-18T08:20:16.762Z,14.57
2018-04-18T08:22:49.501Z,13.57
2018-04-18T08:25:21.990Z,13.67
2018-04-18T08:27:55.515Z,16.40
2018-04-18T08:30:27.844Z,16.47
2018-04-18T08:33:00.268Z,21.77
2018-04-18T08:35:32.858Z,16.43
2018-04-18T08:38:05.986Z,15.73
2018-04-18T08:40:38.386Z,21.07
2018-04-18T08:43:10.918Z,16.60
2018-04-18T08:45:43.263Z,19.63
2018-04-18T08:48:16.475Z,18.80
2018-04-18T08:50:49.518Z,15.77
2018-04-18T08:53:22.201Z,23.37
2018-04-18T08:55:55.508Z,15.70
2018-04-18T08:58:28.670Z,16.53
2018-04-18T09:01:02.003Z,19.50
2018-04-18T09:03:34.369Z,17.50
2018-04-18T09:06:06.715Z,23.00
2018-04-18T09:08:39.215Z,18.40
2018-04-18T09:11:12.687Z,17.03
2018-04-18T09:13:45.247Z,18.30
2018-04-18T09:16:17.587Z,14.80
2018-04-18T09:18:49.976Z,26.60
2018-04-18T09:21:23.538Z,25.10
2018-04-18T09:23:56.126Z,20.00
2018-04-18T09:26:28.696Z,16.13
2018-04-18T09:29:01.318Z,27.83
2018-04-18T09:31:33.858Z,16.13
2018-04-18T09:34:06.230Z,21.77
2018-04-18T09:36:38.570Z,22.40
2018-04-18T09:39:11.223Z,18.67
2018-04-18T09:41:43.692Z,21.70
2018-04-18T09:44:17.027Z,29.10
2018-04-18T09:46:49.587Z,15.47
2018-04-18T09:49:22.167Z,19.87
2018-04-18T09:51:54.548Z,19.30
2018-04-18T09:54:26.987Z,15.37
2018-04-18T09:56:59.370Z,15.27
2018-04-18T09:59:32.014Z,17.30
2018-04-18T10:02:11.162Z,19.80
2018-04-18T10:04:43.598Z,19.23
2018-04-18T10:07:16.159Z,17.83
2018-04-18T10:09:49.306Z,16.27
2018-04-18T10:12:21.651Z,16.73
2018-04-18T10:14:54.028Z,15.30
2018-04-18T10:17:26.430Z,14.50
2018-04-18T10:19:59.222Z,13.03
2018-04-18T10:22:32.514Z,15.00
2018-04-18T10:25:05.116Z,21.40
2018-04-18T10:27:37.623Z,17.73
2018-04-18T10:30:10.113Z,13.63
2018-04-18T10:32:43.407Z,17.93
2018-04-18T10:35:15.838Z,17.73
2018-04-18T10:37:48.160Z,16.80
2018-04-18T10:40:20.674Z,15.57
2018-04-18T10:42:53.137Z,16.37
2018-04-18T10:45:27.076Z,14.40
2018-04-18T10:47:59.426Z,18.03
2018-04-18T10:50:31.950Z,14.50
2018-04-18T10:53:04.503Z,19.53
2018-04-18T10:55:37.158Z,18.13
2018-04-18T10:58:09.768Z,17.73
2018-04-18T11:00:42.237Z,19.87
2018-04-18T11:03:14.651Z,16.57
2018-04-18T11:05:47.280Z,14.03
2018-04-18T11:08:19.807Z,20.60
2018-04-18T11:10:52.986Z,16.30
2018-04-18T11:13:25.442Z,20.33
2018-04-18T11:15:58.214Z,19.80
2018-04-18T11:18:30.551Z,26.60
2018-04-18T11:21:11.090Z,15.23
2018-04-18T11:23:44.767Z,14.50
2018-04-18T11:26:17.383Z,15.83
2018-04-18T11:28:50.670Z,14.33
2018-04-18T11:31:23.195Z,21.57
2018-04-18T11:33:55.722Z,12.03
2018-04-18T11:36:28.182Z,9.67
2018-04-18T11:39:00.583Z,13.90
2018-04-18T11:41:34.415Z,11.10
2018-04-18T11:44:07.736Z,7.23
2018-04-18T11:46:42.218Z,8.53
2018-04-18T11:49:14.614Z,8.33
2018-04-18T11:51:47.291Z,7.03
2018-04-18T11:54:21.595Z,9.37
2018-04-18T11:56:59.973Z,9.00
2018-04-18T11:59:33.325Z,9.07
2018-04-18T12:02:05.802Z,7.53
2018-04-18T12:04:40.372Z,7.97
2018-04-18T12:07:12.899Z,11.90
2018-04-18T12:09:47.290Z,9.20
2018-04-18T12:12:20.426Z,6.87
2018-04-18T12:14:52.942Z,7.50
2018-04-18T12:17:25.479Z,10.40
2018-04-18T12:19:59.416Z,10.27
2018-04-18T12:22:31.764Z,5.97
2018-04-18T12:25:04.155Z,9.37
2018-04-18T12:27:36.620Z,8.40
2018-04-18T12:30:09.988Z,7.50
2018-04-18T12:32:42.816Z,8.33
2018-04-18T12:35:15.999Z,10.43
2018-04-18T12:37:49.237Z,10.20
2018-04-18T12:40:22.674Z,6.70
2018-04-18T12:42:56.816Z,7.30
2018-04-18T12:45:30.268Z,12.20
2018-04-18T12:48:02.788Z,9.80
2018-04-18T12:50:35.259Z,8.80
2018-04-18T12:53:07.950Z,8.23
2018-04-18T12:55:40.454Z,9.07
2018-04-18T12:58:12.994Z,10.20
2018-04-18T13:00:46.284Z,7.90
2018-04-18T13:03:20.998Z,12.77
2018-04-18T13:05:53.295Z,7.67
2018-04-18T13:08:26.719Z,11.23
2018-04-18T13:10:59.328Z,9.70
2018-04-18T13:13:32.138Z,10.03
2018-04-18T13:16:04.698Z,11.30
2018-04-18T13:18:37.230Z,11.17
2018-04-18T13:21:10.490Z,12.87
2018-04-18T13:23:44.185Z,11.50
2018-04-18T13:26:16.950Z,12.17
2018-04-18T13:28:50.159Z,10.80
2018-04-18T13:31:22.816Z,12.50
2018-04-18T13:33:55.286Z,17.97
2018-04-18T13:36:27.736Z,13.53
2018-04-18T13:39:01.024Z,8.20
2018-04-18T13:41:34.407Z,15.60
2018-04-18T13:44:06.910Z,9.07
2018-04-18T13:46:39.451Z,10.80
2018-04-18T13:49:12.618Z,10.83
2018-04-18T13:51:45.208Z,10.70
2018-04-18T13:54:18.518Z,9.13
2018-04-18T13:56:51.032Z,11.20
2018-04-18T13:59:24.224Z,11.23
2018-04-18T14:01:56.775Z,9.77
2018-04-18T14:04:29.651Z,9.40
2018-04-18T14:07:02.162Z,11.57
2018-04-18T14:09:34.811Z,12.67
2018-04-18T14:12:07.354Z,8.90
2018-04-18T14:14:39.999Z,10.53
2018-04-18T14:17:15.626Z,13.50
2018-04-18T14:19:48.010Z,8.20
2018-04-18T14:22:20.546Z,9.47
2018-04-18T14:24:53.699Z,7.13
2018-04-18T14:27:26.086Z,7.87
2018-04-18T14:29:59.307Z,9.73
2018-04-18T14:32:31.799Z,8.17
2018-04-18T14:35:04.354Z,13.67
2018-04-18T14:37:36.706Z,10.50
2018-04-18T14:40:09.156Z,10.97
2018-04-18T14:42:41.506Z,10.17
2018-04-18T14:45:14.162Z,8.67
2018-04-18T14:47:46.501Z,8.30
2018-04-18T14:50:19.171Z,8.80
2018-04-18T14:52:52.474Z,7.40
2018-04-18T14:55:25.589Z,11.10
2018-04-18T14:57:57.986Z,8.20
2018-04-18T15:00:31.327Z,9.30
2018-04-18T15:03:03.855Z,8.07
2018-04-18T15:05:36.666Z,10.83
2018-04-18T15:08:09.191Z,7.77
2018-04-18T15:10:41.589Z,10.53
2018-04-18T15:13:14.067Z,9.77
2018-04-18T15:15:46.472Z,6.60
2018-04-18T15:18:18.900Z,13.20
2018-04-18T15:20:51.343Z,9.33
2018-04-18T15:23:24.367Z,7.27
2018-04-18T15:25:57.798Z,7.73
2018-04-18T15:28:30.198Z,9.60
2018-04-18T15:31:02.778Z,7.83
2018-04-18T15:33:35.355Z,7.13
2018-04-18T15:36:07.988Z,8.03
2018-04-18T15:38:40.483Z,7.63
2018-04-18T15:41:12.997Z,6.70
2018-04-18T15:43:45.431Z,7.83
2018-04-18T15:46:18.744Z,7.30
2018-04-18T15:48:51.106Z,13.50
2018-04-18T15:51:24.422Z,9.20
2018-04-18T15:53:57.023Z,6.90
2018-04-18T15:56:30.443Z,10.87
2018-04-18T15:59:03.863Z,7.37
2018-04-18T16:01:36.334Z,9.40
2018-04-18T16:04:08.898Z,9.07
2018-04-18T16:06:41.474Z,8.13
2018-04-18T16:09:13.963Z,11.80
2018-04-18T16:11:46.469Z,8.93
2018-04-18T16:14:18.802Z,6.47
2018-04-18T16:16:51.962Z,6.60
2018-04-18T16:19:24.314Z,7.53
2018-04-18T16:21:56.896Z,8.60
2018-04-18T16:24:30.029Z,5.87
2018-04-18T16:27:02.436Z,8.50
2018-04-18T16:29:42.119Z,7.63
2018-04-18T16:32:14.686Z,11.03
2018-04-18T16:34:47.227Z,6.83
2018-04-18T16:37:19.722Z,7.00
2018-04-18T16:39:52.947Z,6.87
2018-04-18T16:42:26.462Z,6.50
2018-04-18T16:45:00.706Z,6.80
2018-04-18T16:47:33.275Z,12.13
2018-04-18T16:50:05.707Z,7.20
2018-04-18T16:52:38.159Z,7.93
2018-04-18T16:55:10.493Z,7.60
2018-04-18T16:57:43.238Z,7.90
2018-04-18T17:00:16.701Z,5.07
2018-04-18T17:02:49.355Z,8.60
2018-04-18T17:05:22.990Z,8.50
2018-04-18T17:07:56.547Z,8.40
2018-04-18T17:10:28.863Z,10.53
2018-04-18T17:13:01.415Z,7.93
2018-04-18T17:15:33.978Z,8.63
2018-04-18T17:18:07.179Z,6.60
2018-04-18T17:20:41.663Z,12.90
2018-04-18T17:23:14.237Z,10.97
2018-04-18T17:25:46.823Z,24.93
2018-04-18T17:28:20.602Z,16.47
2018-04-18T17:30:53.763Z,14.53
2018-04-18T17:33:26.260Z,25.30
2018-04-18T17:35:58.814Z,9.93
2018-04-18T17:38:32.320Z,9.50
2018-04-18T17:41:04.714Z,9.47
2018-04-18T17:43:37.218Z,18.90
2018-04-18T17:46:10.238Z,24.43
2018-04-18T17:48:42.760Z,12.20
2018-04-18T17:51:15.274Z,15.80
2018-04-18T17:53:47.904Z,8.20
2018-04-18T17:56:21.065Z,10.07
2018-04-18T17:58:53.831Z,7.93
2018-04-18T18:01:26.250Z,8.97
2018-04-18T18:03:59.438Z,9.30
2018-04-18T18:06:32.490Z,6.20
2018-04-18T18:09:05.034Z,6.90
2018-04-18T18:11:37.542Z,7.10
2018-04-18T18:14:10.016Z,11.23
2018-04-18T18:16:42.559Z,6.17
2018-04-18T18:19:14.929Z,5.80
2018-04-18T18:21:47.323Z,9.33
2018-04-18T18:24:19.999Z,8.80
2018-04-18T18:26:52.390Z,7.93
2018-04-18T18:29:26.832Z,14.20
2018-04-18T18:31:59.411Z,6.27
2018-04-18T18:34:31.993Z,5.53
2018-04-18T18:37:04.459Z,6.70
2018-04-18T18:39:36.998Z,12.03
2018-04-18T18:42:09.665Z,8.97
2018-04-18T18:44:43.069Z,9.10
2018-04-18T18:47:15.398Z,7.80
2018-04-18T18:49:47.917Z,6.77
2018-04-18T18:52:20.365Z,6.77
2018-04-18T18:54:53.643Z,10.30
2018-04-18T18:57:25.995Z,10.03
2018-04-18T18:59:58.586Z,8.63
2018-04-18T19:02:34.377Z,10.30
2018-04-18T19:05:06.886Z,8.90
2018-04-18T19:07:39.231Z,6.90
2018-04-18T19:10:12.479Z,7.90
2018-04-18T19:12:44.954Z,6.47
2018-04-18T19:15:17.346Z,8.67
2018-04-18T19:17:49.844Z,7.03
2018-04-18T19:20:22.457Z,5.80
2018-04-18T19:22:54.879Z,7.00
2018-04-18T19:25:27.336Z,8.63
2018-04-18T19:27:59.921Z,6.80
2018-04-18T19:30:32.369Z,7.50
2018-04-18T19:33:04.687Z,4.83
2018-04-18T19:35:37.902Z,7.07
2018-04-18T19:38:14.950Z,3.90
2018-04-18T19:40:47.522Z,4.60
2018-04-18T19:43:19.854Z,4.57
2018-04-18T19:45:52.474Z,13.90
2018-04-18T19:48:24.999Z,6.23
2018-04-18T19:50:57.650Z,5.73
2018-04-18T19:53:30.215Z,10.37
2018-04-18T19:56:02.852Z,10.00
2018-04-18T19:58:35.339Z,5.67
2018-04-18T20:01:07.768Z,5.87
2018-04-18T20:03:40.943Z,10.77
2018-04-18T20:06:13.680Z,9.40
2018-04-18T20:08:46.127Z,8.43
2018-04-18T20:11:18.678Z,11.30
2018-04-18T20:13:51.027Z,11.20
2018-04-18T20:16:23.501Z,10.10
2018-04-18T20:18:56.734Z,8.27
2018-04-18T20:21:29.139Z,8.17
2018-04-18T20:24:01.678Z,8.03
2018-04-18T20:26:34.319Z,15.70
2018-04-18T20:29:06.710Z,10.30
2018-04-18T20:31:39.125Z,8.57
2018-04-18T20:34:11.410Z,7.77
2018-04-18T20:36:49.671Z,8.17
2018-04-18T20:39:22.275Z,7.97
2018-04-18T20:41:55.621Z,13.47
2018-04-18T20:44:28.887Z,8.37
2018-04-18T20:47:01.284Z,8.90
2018-04-18T20:49:35.136Z,9.00
2018-04-18T20:52:07.714Z,10.00
2018-04-18T20:54:44.232Z,12.27
2018-04-18T20:57:16.982Z,9.30
2018-04-18T20:59:49.462Z,10.93
2018-04-18T21:02:21.964Z,11.33
2018-04-18T21:04:54.426Z,10.40
2018-04-18T21:07:28.555Z,10.47
2018-04-18T21:10:01.021Z,9.37
2018-04-18T21:12:33.965Z,10.37
2018-04-18T21:15:07.139Z,9.57
2018-04-18T21:17:41.173Z,9.73
2018-04-18T21:20:13.842Z,12.53
2018-04-18T21:22:46.534Z,10.30
2018-04-18T21:25:19.191Z,8.00
2018-04-18T21:27:51.731Z,9.57
2018-04-18T21:30:24.944Z,9.80
2018-04-18T21:32:57.471Z,15.80
2018-04-18T21:35:29.975Z,12.53
2018-04-18T21:38:02.764Z,10.87
2018-04-18T21:40:35.966Z,12.13
2018-04-18T21:43:09.190Z,14.07
2018-04-18T21:45:42.554Z,10.40
2018-04-18T21:48:15.353Z,8.30
2018-04-18T21:50:47.654Z,12.40
2018-04-18T21:53:20.165Z,9.17
2018-04-18T21:55:52.548Z,8.03
2018-04-18T21:58:24.971Z,14.80
2018-04-18T22:00:57.362Z,11.10
2018-04-18T22:03:29.941Z,12.20
2018-04-18T22:06:02.434Z,11.27
2018-04-18T22:08:35.018Z,10.77
2018-04-18T22:11:07.845Z,12.70
2018-04-18T22:13:40.939Z,9.47
2018-04-18T22:16:13.290Z,12.17
2018-04-18T22:18:46.348Z,10.43
2018-04-18T22:21:21.103Z,13.13
2018-04-18T22:23:54.303Z,9.60
2018-04-18T22:26:26.746Z,9.90
2018-04-18T22:28:59.352Z,9.40
2018-04-18T22:31:32.806Z,8.67
2018-04-18T22:34:06.082Z,10.47
2018-04-18T22:36:39.651Z,8.80
2018-04-18T22:39:12.189Z,15.10
2018-04-18T22:41:45.370Z,9.40
2018-04-18T22:44:18.694Z,8.80
2018-04-18T22:46:51.791Z,8.83
2018-04-18T22:49:24.227Z,11.80
2018-04-18T22:51:56.551Z,9.53
2018-04-18T22:54:29.582Z,11.53
2018-04-18T22:57:02.075Z,9.93
2018-04-18T22:59:36.269Z,9.77
2018-04-18T23:02:08.610Z,11.60
2018-04-18T23:04:41.130Z,10.13
2018-04-18T23:07:13.660Z,10.27
2018-04-18T23:09:47.269Z,10.80
2018-04-18T23:12:19.850Z,10.67
2018-04-18T23:14:52.730Z,12.40
2018-04-18T23:17:25.827Z,17.23
2018-04-18T23:19:59.379Z,9.30
2018-04-18T23:22:32.989Z,17.33
2018-04-18T23:25:05.452Z,19.47
2018-04-18T23:27:37.930Z,8.30
2018-04-18T23:30:11.263Z,11.10
2018-04-18T23:32:43.780Z,13.57
2018-04-18T23:35:16.395Z,8.43
2018-04-18T23:37:49.522Z,10.73
2018-04-18T23:40:22.046Z,8.77
2018-04-18T23:42:54.415Z,8.30
2018-04-18T23:45:30.654Z,14.60
2018-04-18T23:48:03.693Z,8.60
2018-04-18T23:50:37.362Z,11.87
2018-04-18T23:53:09.698Z,12.93
2018-04-18T23:55:42.414Z,8.57
2018-04-18T23:58:15.106Z,15.80
